Latest Weather Observations for Derby

IDW60801

Issued at 11:33 am WST Wednesday 27 July 2016 (issued every 30 minutes, with the page automatically refreshed every 10 minutes)

About weather observations | Map of weather stations | Latest weather observations for WA | Other Formats
Station Details ID: 003032 Name: DERBY AERO Lat: -17.37 Lon: 123.66 Height: 6.2 m
Data from the previous 72 hours. | See also: Recent months at Derby
Date/Time
WST
Temp
°C
App
Temp
°C
Dew
Point
°C
Rel
Hum
%
Delta-T
°C
Wind Press
QNH
hPa
Press
MSL
hPa
Rain since
9am
mm
Dir  Spd
km/h
Gust
km/h
Spd
kts
Gust
kts
27/11:30am 32.6 27.9 6.0 19 14.3 ENE 20 30 11 16 1014.6 1014.6 0.0
27/11:00am 32.2 27.6 6.4 20 13.9 ENE 20 37 11 20 1014.9 1014.9 0.0
27/10:30am 31.4 25.8 7.1 22 13.2 ENE 26 39 14 21 1015.4 1015.4 0.0
27/10:15am 31.1 25.1 6.9 22 13.1 ENE 28 46 15 25 1015.5 1015.5 0.0
27/10:00am 30.6 24.1 6.5 22 12.9 ENE 30 41 16 22 1015.6 1015.6 0.0
27/09:35am 30.3 24.1 6.2 22 12.8 ENE 28 46 15 25 1015.8 1015.8 0.0
27/09:30am 30.2 23.6 6.1 22 12.8 ENE 30 44 16 24 1015.8 1015.8 0.0
27/09:00am 29.5 23.3 6.2 23 12.3 E 28 43 15 23 1015.8 1015.8 0.0
27/08:30am 28.5 23.2 6.6 25 11.6 E 24 33 13 18 1015.6 1015.6 0.0
27/08:00am 26.9 21.2 6.9 28 10.5 E 26 35 14 19 1015.4 1015.4 0.0
27/07:30am 25.6 19.9 6.8 30 9.8 ESE 26 35 14 19 1015.2 1015.2 0.0
27/07:00am 24.5 19.2 6.7 32 9.2 ESE 24 32 13 17 1015.0 1015.0 0.0
27/06:30am 23.1 18.6 6.8 35 8.4 ESE 20 28 11 15 1014.8 1014.8 0.0
27/06:00am 23.2 18.2 6.5 34 8.6 SE 22 28 12 15 1014.5 1014.5 0.0
27/05:30am 23.6 18.2 6.4 33 8.8 SE 24 33 13 18 1013.9 1013.9 0.0
27/05:00am 24.0 18.6 6.3 32 9.1 SE 24 33 13 18 1013.6 1013.6 0.0
27/04:30am 24.1 19.5 6.4 32 9.1 SE 20 30 11 16 1013.3 1013.3 0.0
27/04:00am 24.2 20.2 6.5 32 9.1 SE 17 22 9 12 1013.2 1013.2 0.0
27/03:30am 23.3 19.2 6.1 33 8.8 SSE 17 20 9 11 1013.0 1013.0 0.0
27/03:00am 21.0 17.5 5.4 36 7.7 SSE 13 17 7 9 1012.9 1012.9 0.0
27/02:30am 21.2 17.6 5.1 35 7.9 S 13 17 7 9 1012.9 1012.9 0.0
27/02:00am 21.7 17.8 5.2 34 8.2 S 15 17 8 9 1012.9 1012.9 0.0
27/01:30am 22.0 18.1 5.4 34 8.3 SSE 15 17 8 9 1013.0 1013.0 0.0
27/01:00am 21.8 18.3 5.3 34 8.2 SSE 13 15 7 8 1013.2 1013.2 0.0
27/12:30am 22.1 18.5 5.1 33 8.4 SSE 13 15 7 8 1013.4 1013.4 0.0
27/12:00am 21.1 17.7 4.2 33 8.2 S 11 13 6 7 1013.6 1013.6 0.0
 
Date/Time
WST
Temp
°C
App
Temp
°C
Dew
Point
°C
Rel
Hum
%
Delta-T
°C
Wind Press
QNH
hPa
Press
MSL
hPa
Rain since
9am
mm
Dir  Spd
km/h
Gust
km/h
Spd
kts
Gust
kts
26/11:30pm 23.4 20.0 5.8 32 8.9 SSE 13 17 7 9 1013.8 1013.8 0.0
26/11:00pm 23.5 20.9 6.3 33 8.8 SE 9 11 5 6 1013.7 1013.7 0.0
26/10:30pm 24.2 21.2 6.0 31 9.3 SE 11 13 6 7 1013.7 1013.7 0.0
26/10:00pm 23.0 21.0 8.7 40 7.6 SSE 9 11 5 6 1013.7 1013.7 0.0
26/09:30pm 22.6 21.2 9.0 42 7.3 SE 6 7 3 4 1013.8 1013.8 0.0
26/09:00pm 23.8 21.8 8.6 38 8.1 SSW 9 11 5 6 1013.8 1013.8 0.0
26/08:30pm 24.7 24.3 8.2 35 8.8 CALM 0 0 0 0 1013.7 1013.7 0.0
26/08:00pm 25.2 24.9 8.7 35 8.9 CALM 0 0 0 0 1013.5 1013.5 0.0
26/07:30pm 25.9 24.9 8.8 34 9.3 N 4 6 2 3 1013.4 1013.4 0.0
26/07:00pm 27.3 26.9 9.6 33 9.8 N 2 6 1 3 1013.1 1013.1 0.0
26/06:30pm 28.1 27.1 8.9 30 10.6 NNW 4 7 2 4 1012.8 1012.8 0.0
26/06:00pm 28.8 27.7 8.5 28 11.1 N 4 9 2 5 1012.3 1012.3 0.0
26/05:30pm 30.3 27.4 8.1 25 12.2 NW 13 20 7 11 1011.8 1011.8 0.0
26/05:00pm 32.4 28.4 6.6 20 14.0 NNW 17 20 9 11 1011.4 1011.4 0.0
26/04:30pm 33.5 30.1 7.5 20 14.4 NNW 15 20 8 11 1011.1 1011.1 0.0
26/04:00pm 35.4 33.7 5.8 16 16.1 W 4 11 2 6 1011.0 1011.0 0.0
26/03:30pm 34.9 32.3 4.4 15 16.2 WNW 7 15 4 8 1010.8 1010.8 0.0
26/03:00pm 34.6 32.2 4.2 15 16.0 ESE 6 17 3 9 1010.8 1010.8 0.0
26/02:30pm 35.1 31.8 4.6 15 16.2 S 11 19 6 10 1010.9 1010.9 0.0
26/02:00pm 35.4 32.9 4.8 15 16.4 ESE 7 13 4 7 1011.2 1011.2 0.0
26/01:30pm 34.8 32.2 4.4 15 16.1 E 7 15 4 8 1011.4 1011.4 0.0
26/01:00pm 34.5 30.9 5.0 16 15.7 SSE 13 20 7 11 1011.8 1011.8 0.0
26/12:30pm 34.1 30.8 4.7 16 15.6 S 11 22 6 12 1012.3 1012.3 0.0
26/12:00pm 33.1 29.5 4.8 17 14.9 SSE 13 24 7 13 1012.9 1012.9 0.0
26/11:30am 33.0 28.8 5.5 18 14.7 ESE 17 28 9 15 1013.4 1013.4 0.0
26/11:00am 32.1 27.9 5.6 19 14.1 SSE 17 24 9 13 1014.0 1014.0 0.0
26/10:30am 31.3 26.5 5.7 20 13.6 SE 20 28 11 15 1014.4 1014.4 0.0
26/10:00am 29.7 24.9 5.7 22 12.6 SE 20 28 11 15 1014.9 1014.9 0.0
26/09:30am 29.1 24.4 5.9 23 12.2 SE 20 30 11 16 1015.3 1015.3 0.0
26/09:00am 27.2 22.4 5.5 25 11.2 SSE 20 28 11 15 1015.6 1015.6 0.0
26/08:30am 25.2 20.7 5.9 29 9.9 SSE 19 24 10 13 1015.6 1015.6 0.0
26/08:00am 23.0 19.5 5.4 32 8.8 S 13 19 7 10 1015.5 1015.5 0.0
26/07:30am 21.4 18.4 6.1 37 7.7 S 11 13 6 7 1015.3 1015.3 0.0
26/07:00am 18.7 16.0 7.2 47 5.8 S 11 13 6 7 1015.2 1015.2 0.0
26/06:30am 17.7 15.3 7.2 50 5.3 SSW 9 11 5 6 1014.8 1014.8 0.0
26/06:00am 17.7 14.9 6.9 49 5.4 SSW 11 13 6 7 1014.4 1014.4 0.0
26/05:30am 18.2 16.2 7.0 48 5.6 SSW 7 11 4 6 1014.0 1014.0 0.0
26/05:00am 18.9 16.2 5.7 42 6.5 S 9 11 5 6 1013.6 1013.6 0.0
26/04:30am 20.0 16.3 4.5 36 7.5 S 13 15 7 8 1013.5 1013.5 0.0
26/04:00am 20.6 17.0 5.0 36 7.6 SSE 13 15 7 8 1013.3 1013.3 0.0
26/03:30am 20.0 16.3 4.5 36 7.5 S 13 15 7 8 1013.4 1013.4 0.0
26/03:00am 20.3 17.0 4.4 35 7.7 SSE 11 13 6 7 1013.2 1013.2 0.0
26/02:30am 20.0 16.2 3.7 34 7.7 S 13 15 7 8 1013.4 1013.4 0.0
26/02:00am 21.9 18.3 4.9 33 8.4 SSE 13 15 7 8 1013.5 1013.5 0.0
26/01:30am 23.2 19.3 5.2 31 9.0 SE 15 19 8 10 1013.5 1013.5 0.0
26/01:00am 23.3 19.7 5.2 31 9.1 SE 13 15 7 8 1013.6 1013.6 0.0
26/12:30am 24.1 20.1 5.0 29 9.6 SSE 15 20 8 11 1013.8 1013.8 0.0
26/12:00am 24.7 20.3 5.0 28 9.9 SSE 17 20 9 11 1013.9 1013.9 0.0
 
Date/Time
WST
Temp
°C
App
Temp
°C
Dew
Point
°C
Rel
Hum
%
Delta-T
°C
Wind Press
QNH
hPa
Press
MSL
hPa
Rain since
9am
mm
Dir  Spd
km/h
Gust
km/h
Spd
kts
Gust
kts
25/11:30pm 25.1 20.8 5.3 28 10.0 SSE 17 22 9 12 1014.0 1014.0 0.0
25/11:00pm 25.2 20.9 5.4 28 10.1 SSE 17 24 9 13 1014.0 1014.0 0.0
25/10:30pm 24.0 20.5 5.4 30 9.4 SSE 13 17 7 9 1014.0 1014.0 0.0
25/10:00pm 23.7 20.1 5.1 30 9.3 SSE 13 19 7 10 1014.0 1014.0 0.0
25/09:30pm 25.8 22.5 6.4 29 10.1 SE 13 17 7 9 1013.7 1013.7 0.0
25/09:00pm 26.2 23.0 6.8 29 10.2 SE 13 15 7 8 1013.6 1013.6 0.0
25/08:30pm 24.9 21.8 5.7 29 9.8 SE 11 13 6 7 1013.4 1013.4 0.0
25/08:00pm 26.6 23.6 6.1 27 10.6 SSE 11 13 6 7 1013.4 1013.4 0.0
25/07:30pm 27.1 24.2 6.5 27 10.8 SSE 11 15 6 8 1013.2 1013.2 0.0
25/07:00pm 27.9 24.6 6.6 26 11.2 S 13 17 7 9 1012.8 1012.8 0.0
25/06:30pm 28.8 25.6 6.8 25 11.7 SSW 13 17 7 9 1012.4 1012.4 0.0
25/06:00pm 28.9 27.3 10.1 31 10.6 W 9 13 5 7 1012.0 1012.0 0.0
25/05:30pm 31.5 29.5 7.2 22 13.2 W 7 13 4 7 1011.7 1011.7 0.0
25/05:00pm 32.1 29.2 9.6 25 12.8 WNW 15 20 8 11 1011.3 1011.3 0.0
25/04:30pm 33.4 30.4 9.4 23 13.7 NW 15 20 8 11 1010.9 1010.9 0.0
25/04:00pm 34.7 31.7 7.7 19 15.1 NW 13 22 7 12 1010.7 1010.7 0.0
25/03:30pm 34.6 31.0 5.1 16 15.8 SSE 13 20 7 11 1010.7 1010.7 0.0
25/03:00pm 34.9 31.8 5.4 16 15.9 SW 11 17 6 9 1010.7 1010.7 0.0
25/02:30pm 34.6 31.0 5.1 16 15.8 ESE 13 20 7 11 1010.9 1010.9 0.0
25/02:00pm 34.8 31.6 5.3 16 15.9 SE 11 19 6 10 1011.2 1011.2 0.0
25/01:30pm 33.9 30.8 5.4 17 15.3 SE 11 19 6 10 1011.6 1011.6 0.0
25/01:00pm 33.9 31.0 6.3 18 15.0 S 11 19 6 10 1012.1 1012.1 0.0
25/12:30pm 33.5 30.9 5.9 18 14.9 SSE 9 19 5 10 1012.7 1012.7 0.0
25/12:00pm 33.0 30.1 6.3 19 14.4 ESE 11 17 6 9 1013.4 1013.4 0.0
25/11:30am 32.0 28.8 7.0 21 13.6 E 13 22 7 12 1014.1 1014.1 0.0
25/11:00am 30.4 26.3 6.3 22 12.8 ESE 17 22 9 12 1014.5 1014.5 0.0
25/10:30am 30.1 26.1 6.7 23 12.5 SE 17 20 9 11 1015.2 1015.2 0.0
25/10:00am 28.6 24.2 6.7 25 11.6 SE 19 26 10 14 1015.7 1015.7 0.0
25/09:30am 27.8 24.3 7.1 27 11.0 SSE 15 20 8 11 1015.9 1015.9 0.0
25/09:00am 26.0 21.6 6.6 29 10.1 SSE 19 24 10 13 1016.2 1016.2 0.0
25/08:30am 24.5 20.0 6.3 31 9.4 SSE 19 24 10 13 1016.0 1016.0 0.0
25/08:00am 22.5 18.5 6.7 36 8.1 SSE 17 22 9 12 1015.5 1015.5 0.0
25/07:30am 20.1 15.4 6.1 40 7.0 S 20 26 11 14 1015.5 1015.5 0.0
25/07:00am 18.9 13.9 6.4 44 6.2 S 22 26 12 14 1015.4 1015.4 0.0
25/06:30am 17.7 13.6 6.3 47 5.6 S 17 24 9 13 1015.3 1015.3 0.0
25/06:00am 17.7 13.5 5.9 46 5.8 S 17 20 9 11 1014.7 1014.7 0.0
25/05:30am 17.8 13.7 6.0 46 5.8 S 17 20 9 11 1014.3 1014.3 0.0
25/05:00am 17.9 13.9 6.7 48 5.6 S 17 20 9 11 1013.9 1013.9 0.0
25/04:30am 17.5 14.1 6.1 47 5.6 SSW 13 17 7 9 1013.7 1013.7 0.0
25/04:00am 17.8 14.6 5.1 43 6.1 SSW 11 17 6 9 1013.7 1013.7 0.0
25/03:30am 17.4 15.0 4.4 42 6.1 SW 6 9 3 5 1013.6 1013.6 0.0
25/03:00am 18.3 17.0 4.1 39 6.7 CALM 0 0 0 0 1013.5 1013.5 0.0
25/02:30am 20.0 16.3 4.5 36 7.5 SSE 13 17 7 9 1013.3 1013.3 0.0
25/02:00am 19.8 16.1 4.3 36 7.4 SSE 13 17 7 9 1013.4 1013.4 0.0
25/01:30am 21.2 17.2 4.7 34 8.1 SSE 15 17 8 9 1013.7 1013.7 0.0
25/01:00am 22.5 18.1 5.0 32 8.7 SSE 17 20 9 11 1013.9 1013.9 0.0
25/12:30am 22.9 18.2 5.3 32 8.8 SSE 19 24 10 13 1014.1 1014.1 0.0
25/12:00am 22.8 18.9 5.3 32 8.7 SSE 15 17 8 9 1014.2 1014.2 0.0
 
Date/Time
WST
Temp
°C
App
Temp
°C
Dew
Point
°C
Rel
Hum
%
Delta-T
°C
Wind Press
QNH
hPa
Press
MSL
hPa
Rain since
9am
mm
Dir  Spd
km/h
Gust
km/h
Spd
kts
Gust
kts
24/11:30pm 22.5 18.9 5.0 32 8.7 SSE 13 15 7 8 1014.1 1014.1 0.0
24/11:00pm 23.1 19.5 5.1 31 9.0 SSE 13 15 7 8 1014.2 1014.2 0.0
24/10:30pm 23.6 19.6 5.0 30 9.3 SSE 15 19 8 10 1014.2 1014.2 0.0
24/10:00pm 23.2 19.6 5.2 31 9.0 SSE 13 17 7 9 1014.1 1014.1 0.0
24/09:30pm 25.1 21.7 5.8 29 9.9 SE 13 15 7 8 1014.1 1014.1 0.0
24/09:00pm 26.0 22.2 5.6 27 10.5 SE 15 17 8 9 1014.0 1014.0 0.0
24/08:30pm 26.8 22.7 6.2 27 10.7 SE 17 20 9 11 1013.9 1013.9 0.0
24/08:00pm 26.8 23.1 6.2 27 10.7 SE 15 19 8 10 1013.7 1013.7 0.0
24/07:30pm 26.7 23.2 5.6 26 10.9 SE 13 15 7 8 1013.5 1013.5 0.0
24/07:00pm 27.4 23.8 5.1 24 11.4 SSE 13 17 7 9 1012.9 1012.9 0.0
24/06:30pm 28.9 25.5 5.7 23 12.1 SE 13 17 7 9 1012.5 1012.5 0.0
24/06:00pm 30.3 26.1 5.6 21 13.0 SE 17 20 9 11 1012.1 1012.1 0.0
24/05:30pm 31.5 26.7 5.8 20 13.7 SE 20 28 11 15 1011.8 1011.8 0.0
24/05:00pm 32.9 28.7 5.5 18 14.6 SE 17 22 9 12 1011.6 1011.6 0.0
24/04:30pm 33.5 28.8 5.9 18 14.9 SE 20 30 11 16 1011.3 1011.3 0.0
24/04:00pm 33.9 29.3 6.3 18 15.0 SE 20 33 11 18 1011.0 1011.0 0.0
24/03:30pm 34.3 29.5 4.9 16 15.6 SE 19 26 10 14 1010.7 1010.7 0.0
24/03:00pm 34.2 30.9 4.8 16 15.6 ENE 11 20 6 11 1010.8 1010.8 0.0
24/02:30pm 34.0 29.8 5.5 17 15.3 E 17 30 9 16 1011.0 1011.0 0.0
24/02:00pm 34.1 29.7 6.4 18 15.1 SSE 19 28 10 15 1011.2 1011.2 0.0
24/01:30pm 34.1 30.0 6.4 18 15.1 ESE 17 37 9 20 1011.5 1011.5 0.0
24/01:00pm 33.7 29.6 6.1 18 14.9 ESE 17 24 9 13 1012.0 1012.0 0.0
24/12:30pm 34.0 29.5 6.3 18 15.0 ESE 19 26 10 14 1012.7 1012.7 0.0
24/12:00pm 32.6 28.2 6.7 20 14.1 ESE 19 32 10 17 1013.2 1013.2 0.0

Other Formats:

Comma delimited format used in spreadsheet applications
http://www.bom.gov.au/fwo/IDW60801/IDW60801.95205.axf

JavaScript Object Notation format (JSON) in row-major order
http://www.bom.gov.au/fwo/IDW60801/IDW60801.95205.json